sensor_id;sensor_type;location;lat;lon;timestamp;temperature;humidity
14093;DHT22;7123;49.468;10.992;2022-08-25T00:01:28;25.20;99.90
14093;DHT22;7123;49.468;10.992;2022-08-25T00:03:58;25.20;99.90
14093;DHT22;7123;49.468;10.992;2022-08-25T00:06:27;25.10;99.90
14093;DHT22;7123;49.468;10.992;2022-08-25T00:08:54;25.10;99.90
14093;DHT22;7123;49.468;10.992;2022-08-25T00:11:28;25.10;99.90
14093;DHT22;7123;49.468;10.992;2022-08-25T00:13:58;25.10;99.90
14093;DHT22;7123;49.468;10.992;2022-08-25T00:16:27;25.10;99.90
14093;DHT22;7123;49.468;10.992;2022-08-25T00:18:58;25.10;99.90
14093;DHT22;7123;49.468;10.992;2022-08-25T00:21:26;25.10;99.90
14093;DHT22;7123;49.468;10.992;2022-08-25T00:23:53;25.10;99.90
14093;DHT22;7123;49.468;10.992;2022-08-25T00:26:20;25.10;99.90
14093;DHT22;7123;49.468;10.992;2022-08-25T00:28:47;25.00;99.90
14093;DHT22;7123;49.468;10.992;2022-08-25T00:31:16;25.00;99.90
14093;DHT22;7123;49.468;10.992;2022-08-25T00:33:45;25.00;99.90
14093;DHT22;7123;49.468;10.992;2022-08-25T00:36:11;25.00;99.90
14093;DHT22;7123;49.468;10.992;2022-08-25T00:38:39;25.00;99.90
14093;DHT22;7123;49.468;10.992;2022-08-25T00:41:07;25.00;99.90
14093;DHT22;7123;49.468;10.992;2022-08-25T00:46:08;24.90;99.90
14093;DHT22;7123;49.468;10.992;2022-08-25T00:48:36;24.90;99.90
14093;DHT22;7123;49.468;10.992;2022-08-25T00:51:06;24.90;99.90
14093;DHT22;7123;49.468;10.992;2022-08-25T00:53:35;24.80;99.90
14093;DHT22;7123;49.468;10.992;2022-08-25T00:56:02;24.80;99.90
14093;DHT22;7123;49.468;10.992;2022-08-25T00:58:31;24.80;99.90
14093;DHT22;7123;49.468;10.992;2022-08-25T01:00:58;24.80;99.90
14093;DHT22;7123;49.468;10.992;2022-08-25T01:03:26;24.80;99.90
14093;DHT22;7123;49.468;10.992;2022-08-25T01:06:00;24.80;99.90
14093;DHT22;7123;49.468;10.992;2022-08-25T01:08:28;24.80;99.90
14093;DHT22;7123;49.468;10.992;2022-08-25T01:11:01;24.80;99.90
14093;DHT22;7123;49.468;10.992;2022-08-25T01:13:43;24.80;99.90
14093;DHT22;7123;49.468;10.992;2022-08-25T01:16:12;24.80;99.90
14093;DHT22;7123;49.468;10.992;2022-08-25T01:18:49;24.70;99.90
14093;DHT22;7123;49.468;10.992;2022-08-25T01:21:19;24.70;99.90
14093;DHT22;7123;49.468;10.992;2022-08-25T01:23:47;24.70;99.90
14093;DHT22;7123;49.468;10.992;2022-08-25T01:26:22;24.60;99.90
14093;DHT22;7123;49.468;10.992;2022-08-25T01:28:58;24.60;99.90
14093;DHT22;7123;49.468;10.992;2022-08-25T01:31:43;24.60;99.90
14093;DHT22;7123;49.468;10.992;2022-08-25T01:34:11;24.60;99.90
14093;DHT22;7123;49.468;10.992;2022-08-25T01:36:40;24.60;99.90
14093;DHT22;7123;49.468;10.992;2022-08-25T01:39:07;24.60;99.90
14093;DHT22;7123;49.468;10.992;2022-08-25T01:44:25;24.50;99.90
14093;DHT22;7123;49.468;10.992;2022-08-25T01:46:52;24.50;99.90
14093;DHT22;7123;49.468;10.992;2022-08-25T01:49:20;24.50;99.90
14093;DHT22;7123;49.468;10.992;2022-08-25T01:51:51;24.50;99.90
14093;DHT22;7123;49.468;10.992;2022-08-25T01:54:19;24.40;99.90
14093;DHT22;7123;49.468;10.992;2022-08-25T01:56:45;24.40;99.90
14093;DHT22;7123;49.468;10.992;2022-08-25T01:59:15;24.40;99.90
14093;DHT22;7123;49.468;10.992;2022-08-25T02:01:50;24.40;99.90
14093;DHT22;7123;49.468;10.992;2022-08-25T02:04:26;24.40;99.90
14093;DHT22;7123;49.468;10.992;2022-08-25T02:06:54;24.40;99.90
14093;DHT22;7123;49.468;10.992;2022-08-25T02:09:21;24.30;99.90
14093;DHT22;7123;49.468;10.992;2022-08-25T02:11:48;24.30;99.90
14093;DHT22;7123;49.468;10.992;2022-08-25T02:14:16;24.30;99.90
14093;DHT22;7123;49.468;10.992;2022-08-25T02:16:46;24.30;99.90
14093;DHT22;7123;49.468;10.992;2022-08-25T02:19:15;24.30;99.90
14093;DHT22;7123;49.468;10.992;2022-08-25T02:21:42;24.30;99.90
14093;DHT22;7123;49.468;10.992;2022-08-25T02:24:10;24.30;99.90
14093;DHT22;7123;49.468;10.992;2022-08-25T02:26:38;24.20;99.90
14093;DHT22;7123;49.468;10.992;2022-08-25T02:29:06;24.20;99.90
14093;DHT22;7123;49.468;10.992;2022-08-25T02:31:33;24.20;99.90
14093;DHT22;7123;49.468;10.992;2022-08-25T02:34:00;24.20;99.90
14093;DHT22;7123;49.468;10.992;2022-08-25T02:36:28;24.20;99.90
14093;DHT22;7123;49.468;10.992;2022-08-25T02:38:55;24.10;99.90
14093;DHT22;7123;49.468;10.992;2022-08-25T02:41:23;24.20;99.90
14093;DHT22;7123;49.468;10.992;2022-08-25T02:43:57;24.10;99.90
14093;DHT22;7123;49.468;10.992;2022-08-25T02:46:24;24.10;99.90
14093;DHT22;7123;49.468;10.992;2022-08-25T02:48:51;24.10;99.90
14093;DHT22;7123;49.468;10.992;2022-08-25T02:51:21;24.00;99.90
14093;DHT22;7123;49.468;10.992;2022-08-25T02:53:48;24.00;99.90
14093;DHT22;7123;49.468;10.992;2022-08-25T02:56:16;24.00;99.90
14093;DHT22;7123;49.468;10.992;2022-08-25T02:58:44;24.00;99.90
14093;DHT22;7123;49.468;10.992;2022-08-25T03:01:12;24.00;99.90
14093;DHT22;7123;49.468;10.992;2022-08-25T03:03:40;24.00;99.90
14093;DHT22;7123;49.468;10.992;2022-08-25T03:06:11;24.00;99.90
14093;DHT22;7123;49.468;10.992;2022-08-25T03:08:38;24.00;99.90
14093;DHT22;7123;49.468;10.992;2022-08-25T03:11:05;24.00;99.90
14093;DHT22;7123;49.468;10.992;2022-08-25T03:13:32;23.90;99.90
14093;DHT22;7123;49.468;10.992;2022-08-25T03:16:00;23.90;99.90
14093;DHT22;7123;49.468;10.992;2022-08-25T03:18:29;23.90;99.90
14093;DHT22;7123;49.468;10.992;2022-08-25T03:20:56;23.90;99.90
14093;DHT22;7123;49.468;10.992;2022-08-25T03:23:23;23.90;99.90
14093;DHT22;7123;49.468;10.992;2022-08-25T03:25:50;23.90;99.90
14093;DHT22;7123;49.468;10.992;2022-08-25T03:28:35;23.90;99.90
14093;DHT22;7123;49.468;10.992;2022-08-25T03:31:02;23.80;99.90
14093;DHT22;7123;49.468;10.992;2022-08-25T03:33:29;23.80;99.90
14093;DHT22;7123;49.468;10.992;2022-08-25T03:35:56;23.80;99.90
14093;DHT22;7123;49.468;10.992;2022-08-25T03:38:24;23.80;99.90
14093;DHT22;7123;49.468;10.992;2022-08-25T03:40:51;23.70;99.90
14093;DHT22;7123;49.468;10.992;2022-08-25T03:43:18;23.70;99.90
14093;DHT22;7123;49.468;10.992;2022-08-25T03:45:45;23.70;99.90
14093;DHT22;7123;49.468;10.992;2022-08-25T03:48:13;23.70;99.90
14093;DHT22;7123;49.468;10.992;2022-08-25T03:50:48;23.70;99.90
14093;DHT22;7123;49.468;10.992;2022-08-25T03:53:18;23.70;99.90
14093;DHT22;7123;49.468;10.992;2022-08-25T03:55:46;23.70;99.90
14093;DHT22;7123;49.468;10.992;2022-08-25T03:58:12;23.70;99.90
14093;DHT22;7123;49.468;10.992;2022-08-25T04:00:39;23.70;99.90
14093;DHT22;7123;49.468;10.992;2022-08-25T04:03:06;23.60;99.90
14093;DHT22;7123;49.468;10.992;2022-08-25T04:05:33;23.70;99.90
14093;DHT22;7123;49.468;10.992;2022-08-25T04:08:00;23.60;99.90
14093;DHT22;7123;49.468;10.992;2022-08-25T04:10:28;23.60;99.90
14093;DHT22;7123;49.468;10.992;2022-08-25T04:12:55;23.60;99.90
14093;DHT22;7123;49.468;10.992;2022-08-25T04:15:22;23.60;99.90
14093;DHT22;7123;49.468;10.992;2022-08-25T04:17:56;23.60;99.90
14093;DHT22;7123;49.468;10.992;2022-08-25T04:20:24;23.60;99.90
14093;DHT22;7123;49.468;10.992;2022-08-25T04:22:51;23.60;99.90
14093;DHT22;7123;49.468;10.992;2022-08-25T04:25:17;23.50;99.90
14093;DHT22;7123;49.468;10.992;2022-08-25T04:27:44;23.60;99.90
14093;DHT22;7123;49.468;10.992;2022-08-25T04:30:11;23.60;99.90
14093;DHT22;7123;49.468;10.992;2022-08-25T04:32:38;23.50;99.90
14093;DHT22;7123;49.468;10.992;2022-08-25T04:35:05;23.50;99.90
14093;DHT22;7123;49.468;10.992;2022-08-25T04:37:33;23.50;99.90
14093;DHT22;7123;49.468;10.992;2022-08-25T04:40:00;23.50;99.90
14093;DHT22;7123;49.468;10.992;2022-08-25T04:42:27;23.50;99.90
14093;DHT22;7123;49.468;10.992;2022-08-25T04:44:53;23.50;99.90
14093;DHT22;7123;49.468;10.992;2022-08-25T04:47:21;23.50;99.90
14093;DHT22;7123;49.468;10.992;2022-08-25T04:49:48;23.50;99.90
14093;DHT22;7123;49.468;10.992;2022-08-25T04:52:14;23.40;99.90
14093;DHT22;7123;49.468;10.992;2022-08-25T04:54:42;23.50;99.90
14093;DHT22;7123;49.468;10.992;2022-08-25T04:57:09;23.50;99.90
14093;DHT22;7123;49.468;10.992;2022-08-25T04:59:36;23.50;99.90
14093;DHT22;7123;49.468;10.992;2022-08-25T05:02:03;23.50;99.90
14093;DHT22;7123;49.468;10.992;2022-08-25T05:04:32;23.50;99.90
14093;DHT22;7123;49.468;10.992;2022-08-25T05:06:59;23.50;99.90
14093;DHT22;7123;49.468;10.992;2022-08-25T05:09:27;23.50;99.90
14093;DHT22;7123;49.468;10.992;2022-08-25T05:11:53;23.60;99.90
14093;DHT22;7123;49.468;10.992;2022-08-25T05:14:21;23.50;99.90
14093;DHT22;7123;49.468;10.992;2022-08-25T05:16:55;23.50;99.90
14093;DHT22;7123;49.468;10.992;2022-08-25T05:19:22;23.50;99.90
14093;DHT22;7123;49.468;10.992;2022-08-25T05:21:50;23.50;99.90
14093;DHT22;7123;49.468;10.992;2022-08-25T05:24:18;23.50;99.90
14093;DHT22;7123;49.468;10.992;2022-08-25T05:26:44;23.50;99.90
14093;DHT22;7123;49.468;10.992;2022-08-25T05:29:11;23.50;99.90
14093;DHT22;7123;49.468;10.992;2022-08-25T05:31:38;23.50;99.90
14093;DHT22;7123;49.468;10.992;2022-08-25T05:34:11;23.50;99.90
14093;DHT22;7123;49.468;10.992;2022-08-25T05:36:38;23.50;99.90
14093;DHT22;7123;49.468;10.992;2022-08-25T05:39:09;23.50;99.90
14093;DHT22;7123;49.468;10.992;2022-08-25T05:41:36;23.50;99.90
14093;DHT22;7123;49.468;10.992;2022-08-25T05:44:03;23.50;99.90
14093;DHT22;7123;49.468;10.992;2022-08-25T05:46:30;23.50;99.90
14093;DHT22;7123;49.468;10.992;2022-08-25T05:48:58;23.60;99.90
14093;DHT22;7123;49.468;10.992;2022-08-25T05:51:25;23.50;99.90
14093;DHT22;7123;49.468;10.992;2022-08-25T05:53:52;23.50;99.90
14093;DHT22;7123;49.468;10.992;2022-08-25T05:56:19;23.50;99.90
14093;DHT22;7123;49.468;10.992;2022-08-25T05:58:47;23.60;99.90
14093;DHT22;7123;49.468;10.992;2022-08-25T06:01:26;23.50;99.90
14093;DHT22;7123;49.468;10.992;2022-08-25T06:04:13;23.60;99.90
14093;DHT22;7123;49.468;10.992;2022-08-25T06:06:40;23.60;99.90
14093;DHT22;7123;49.468;10.992;2022-08-25T06:09:07;23.60;99.90
14093;DHT22;7123;49.468;10.992;2022-08-25T06:11:39;23.60;99.90
14093;DHT22;7123;49.468;10.992;2022-08-25T06:14:08;23.60;99.90
14093;DHT22;7123;49.468;10.992;2022-08-25T06:16:35;23.60;99.90
14093;DHT22;7123;49.468;10.992;2022-08-25T06:19:02;23.70;99.90
14093;DHT22;7123;49.468;10.992;2022-08-25T06:21:28;23.70;99.90
14093;DHT22;7123;49.468;10.992;2022-08-25T06:23:56;23.70;99.90
14093;DHT22;7123;49.468;10.992;2022-08-25T06:26:23;23.70;99.90
14093;DHT22;7123;49.468;10.992;2022-08-25T06:28:51;23.70;99.90
14093;DHT22;7123;49.468;10.992;2022-08-25T06:31:18;23.80;99.90
14093;DHT22;7123;49.468;10.992;2022-08-25T06:33:46;23.80;99.90
14093;DHT22;7123;49.468;10.992;2022-08-25T06:36:13;23.80;99.90
14093;DHT22;7123;49.468;10.992;2022-08-25T06:38:40;23.80;99.90
14093;DHT22;7123;49.468;10.992;2022-08-25T06:41:08;23.90;99.90
14093;DHT22;7123;49.468;10.992;2022-08-25T06:43:39;23.90;99.90
14093;DHT22;7123;49.468;10.992;2022-08-25T06:46:17;23.90;99.90
14093;DHT22;7123;49.468;10.992;2022-08-25T06:48:44;23.90;99.90
14093;DHT22;7123;49.468;10.992;2022-08-25T06:51:13;23.90;99.90
14093;DHT22;7123;49.468;10.992;2022-08-25T06:53:42;24.00;99.90
14093;DHT22;7123;49.468;10.992;2022-08-25T06:56:09;24.00;99.90
14093;DHT22;7123;49.468;10.992;2022-08-25T06:58:37;24.00;99.90
14093;DHT22;7123;49.468;10.992;2022-08-25T07:01:08;24.10;99.90
14093;DHT22;7123;49.468;10.992;2022-08-25T07:03:42;24.00;99.90
14093;DHT22;7123;49.468;10.992;2022-08-25T07:06:09;24.00;99.90
14093;DHT22;7123;49.468;10.992;2022-08-25T07:08:36;24.00;99.90
14093;DHT22;7123;49.468;10.992;2022-08-25T07:11:07;24.00;99.90
14093;DHT22;7123;49.468;10.992;2022-08-25T07:13:42;24.00;99.90
14093;DHT22;7123;49.468;10.992;2022-08-25T07:16:09;24.00;99.90
14093;DHT22;7123;49.468;10.992;2022-08-25T07:18:37;24.00;99.90
14093;DHT22;7123;49.468;10.992;2022-08-25T07:21:04;24.10;99.90
14093;DHT22;7123;49.468;10.992;2022-08-25T07:23:35;24.00;99.90
14093;DHT22;7123;49.468;10.992;2022-08-25T07:26:14;24.10;99.90
14093;DHT22;7123;49.468;10.992;2022-08-25T07:29:11;24.00;99.90
14093;DHT22;7123;49.468;10.992;2022-08-25T07:31:39;24.10;99.90
14093;DHT22;7123;49.468;10.992;2022-08-25T07:34:07;24.10;99.90
14093;DHT22;7123;49.468;10.992;2022-08-25T07:36:54;24.10;99.90
14093;DHT22;7123;49.468;10.992;2022-08-25T07:39:23;24.10;99.90
14093;DHT22;7123;49.468;10.992;2022-08-25T07:41:50;24.20;99.90
14093;DHT22;7123;49.468;10.992;2022-08-25T07:44:19;24.20;99.90
14093;DHT22;7123;49.468;10.992;2022-08-25T07:46:46;24.20;99.90
14093;DHT22;7123;49.468;10.992;2022-08-25T07:49:16;24.20;99.90
14093;DHT22;7123;49.468;10.992;2022-08-25T07:51:49;24.20;99.90
14093;DHT22;7123;49.468;10.992;2022-08-25T07:54:33;24.20;99.90
14093;DHT22;7123;49.468;10.992;2022-08-25T07:57:07;24.30;99.90
14093;DHT22;7123;49.468;10.992;2022-08-25T07:59:39;24.30;99.90
14093;DHT22;7123;49.468;10.992;2022-08-25T08:02:08;24.50;99.90
14093;DHT22;7123;49.468;10.992;2022-08-25T08:04:51;24.50;99.90
14093;DHT22;7123;49.468;10.992;2022-08-25T08:07:21;24.60;99.90
14093;DHT22;7123;49.468;10.992;2022-08-25T08:09:48;24.60;99.90
14093;DHT22;7123;49.468;10.992;2022-08-25T08:12:30;24.60;99.90
14093;DHT22;7123;49.468;10.992;2022-08-25T08:14:59;24.70;99.90
14093;DHT22;7123;49.468;10.992;2022-08-25T08:17:26;24.70;99.90
14093;DHT22;7123;49.468;10.992;2022-08-25T08:19:53;24.80;99.90
14093;DHT22;7123;49.468;10.992;2022-08-25T08:22:19;24.70;99.90
14093;DHT22;7123;49.468;10.992;2022-08-25T08:24:46;24.70;99.90
14093;DHT22;7123;49.468;10.992;2022-08-25T08:27:20;24.60;99.90
14093;DHT22;7123;49.468;10.992;2022-08-25T08:29:47;24.50;99.90
14093;DHT22;7123;49.468;10.992;2022-08-25T08:32:14;24.60;99.90
14093;DHT22;7123;49.468;10.992;2022-08-25T08:34:44;24.70;99.90
14093;DHT22;7123;49.468;10.992;2022-08-25T08:37:17;24.70;99.90
14093;DHT22;7123;49.468;10.992;2022-08-25T08:39:48;24.70;99.90
14093;DHT22;7123;49.468;10.992;2022-08-25T08:42:37;24.80;99.90
14093;DHT22;7123;49.468;10.992;2022-08-25T08:54:00;25.00;99.90
14093;DHT22;7123;49.468;10.992;2022-08-25T08:56:37;25.00;99.90
14093;DHT22;7123;49.468;10.992;2022-08-25T08:59:18;25.10;99.90
14093;DHT22;7123;49.468;10.992;2022-08-25T09:01:56;25.20;99.90
14093;DHT22;7123;49.468;10.992;2022-08-25T09:07:05;25.30;99.90
14093;DHT22;7123;49.468;10.992;2022-08-25T09:09:39;25.30;99.90
14093;DHT22;7123;49.468;10.992;2022-08-25T09:26:24;25.60;99.90
14093;DHT22;7123;49.468;10.992;2022-08-25T09:29:20;25.60;99.90
14093;DHT22;7123;49.468;10.992;2022-08-25T09:31:48;25.60;99.90
14093;DHT22;7123;49.468;10.992;2022-08-25T09:34:21;25.60;99.90
14093;DHT22;7123;49.468;10.992;2022-08-25T09:36:49;25.70;99.90
14093;DHT22;7123;49.468;10.992;2022-08-25T09:39:19;25.70;99.90
14093;DHT22;7123;49.468;10.992;2022-08-25T09:41:51;25.80;99.90
14093;DHT22;7123;49.468;10.992;2022-08-25T09:44:41;25.90;99.90
14093;DHT22;7123;49.468;10.992;2022-08-25T09:50:00;26.00;99.90
14093;DHT22;7123;49.468;10.992;2022-08-25T09:52:36;26.00;99.90
14093;DHT22;7123;49.468;10.992;2022-08-25T09:57:46;26.00;99.90
14093;DHT22;7123;49.468;10.992;2022-08-25T10:00:27;26.00;99.90
14093;DHT22;7123;49.468;10.992;2022-08-25T10:11:12;26.10;99.90
14093;DHT22;7123;49.468;10.992;2022-08-25T10:13:47;26.10;99.90
14093;DHT22;7123;49.468;10.992;2022-08-25T10:16:26;26.10;99.90
14093;DHT22;7123;49.468;10.992;2022-08-25T10:19:13;26.10;99.90
14093;DHT22;7123;49.468;10.992;2022-08-25T10:22:11;26.10;99.90
14093;DHT22;7123;49.468;10.992;2022-08-25T10:24:45;26.10;99.90
14093;DHT22;7123;49.468;10.992;2022-08-25T10:32:41;26.20;99.90
14093;DHT22;7123;49.468;10.992;2022-08-25T10:35:23;26.20;99.90
14093;DHT22;7123;49.468;10.992;2022-08-25T10:38:21;26.10;99.90
14093;DHT22;7123;49.468;10.992;2022-08-25T10:43:58;26.10;99.90
14093;DHT22;7123;49.468;10.992;2022-08-25T10:46:47;26.20;99.90
14093;DHT22;7123;49.468;10.992;2022-08-25T10:49:32;26.40;99.90
14093;DHT22;7123;49.468;10.992;2022-08-25T10:52:09;26.50;99.90
14093;DHT22;7123;49.468;10.992;2022-08-25T10:55:17;26.50;99.90
14093;DHT22;7123;49.468;10.992;2022-08-25T10:57:50;26.50;99.90
14093;DHT22;7123;49.468;10.992;2022-08-25T11:00:21;26.40;99.90
14093;DHT22;7123;49.468;10.992;2022-08-25T11:06:07;26.40;99.90
14093;DHT22;7123;49.468;10.992;2022-08-25T11:08:49;26.50;99.90
14093;DHT22;7123;49.468;10.992;2022-08-25T11:11:36;26.50;99.90
14093;DHT22;7123;49.468;10.992;2022-08-25T11:14:15;26.50;99.90
14093;DHT22;7123;49.468;10.992;2022-08-25T11:17:09;26.50;99.90
14093;DHT22;7123;49.468;10.992;2022-08-25T11:19:38;26.50;99.90
14093;DHT22;7123;49.468;10.992;2022-08-25T11:25:34;26.60;99.90
14093;DHT22;7123;49.468;10.992;2022-08-25T11:30:33;26.60;99.90
14093;DHT22;7123;49.468;10.992;2022-08-25T11:33:01;26.60;99.90
14093;DHT22;7123;49.468;10.992;2022-08-25T11:35:36;26.60;99.90
14093;DHT22;7123;49.468;10.992;2022-08-25T11:57:40;26.80;99.90
14093;DHT22;7123;49.468;10.992;2022-08-25T12:00:35;26.70;99.90
14093;DHT22;7123;49.468;10.992;2022-08-25T12:11:47;26.40;99.90
14093;DHT22;7123;49.468;10.992;2022-08-25T12:27:31;26.30;99.90
14093;DHT22;7123;49.468;10.992;2022-08-25T12:30:22;26.30;99.90
14093;DHT22;7123;49.468;10.992;2022-08-25T12:35:39;26.50;99.90
14093;DHT22;7123;49.468;10.992;2022-08-25T12:38:17;26.50;99.90
14093;DHT22;7123;49.468;10.992;2022-08-25T12:40:59;26.50;99.90
14093;DHT22;7123;49.468;10.992;2022-08-25T12:43:34;26.60;99.90
14093;DHT22;7123;49.468;10.992;2022-08-25T12:49:28;26.70;99.90
14093;DHT22;7123;49.468;10.992;2022-08-25T12:52:01;26.70;99.90
14093;DHT22;7123;49.468;10.992;2022-08-25T12:57:39;26.70;99.90
14093;DHT22;7123;49.468;10.992;2022-08-25T13:00:21;26.70;99.90
14093;DHT22;7123;49.468;10.992;2022-08-25T13:05:46;26.80;99.90
14093;DHT22;7123;49.468;10.992;2022-08-25T13:11:20;27.00;99.90
14093;DHT22;7123;49.468;10.992;2022-08-25T13:13:57;27.00;99.90
14093;DHT22;7123;49.468;10.992;2022-08-25T13:16:28;27.10;99.90
14093;DHT22;7123;49.468;10.992;2022-08-25T13:18:57;27.10;99.90
14093;DHT22;7123;49.468;10.992;2022-08-25T13:21:41;27.20;99.90
14093;DHT22;7123;49.468;10.992;2022-08-25T13:24:17;27.30;99.90
14093;DHT22;7123;49.468;10.992;2022-08-25T13:26:47;27.50;99.90
14093;DHT22;7123;49.468;10.992;2022-08-25T13:29:27;27.60;99.90
14093;DHT22;7123;49.468;10.992;2022-08-25T13:32:06;27.60;99.90
14093;DHT22;7123;49.468;10.992;2022-08-25T13:34:39;27.70;99.90
14093;DHT22;7123;49.468;10.992;2022-08-25T13:37:21;27.70;99.90
14093;DHT22;7123;49.468;10.992;2022-08-25T13:40:10;27.80;99.90
14093;DHT22;7123;49.468;10.992;2022-08-25T13:42:39;27.80;99.90
14093;DHT22;7123;49.468;10.992;2022-08-25T13:45:15;27.90;99.90
14093;DHT22;7123;49.468;10.992;2022-08-25T13:47:44;27.80;99.90
14093;DHT22;7123;49.468;10.992;2022-08-25T13:52:58;28.20;99.90
14093;DHT22;7123;49.468;10.992;2022-08-25T13:58:29;28.40;99.90
14093;DHT22;7123;49.468;10.992;2022-08-25T14:01:20;28.40;99.90
14093;DHT22;7123;49.468;10.992;2022-08-25T14:12:47;28.80;99.90
14093;DHT22;7123;49.468;10.992;2022-08-25T14:18:17;28.60;99.90
14093;DHT22;7123;49.468;10.992;2022-08-25T14:20:53;28.50;99.90
14093;DHT22;7123;49.468;10.992;2022-08-25T14:23:24;28.30;99.90
14093;DHT22;7123;49.468;10.992;2022-08-25T14:25:54;28.30;99.90
14093;DHT22;7123;49.468;10.992;2022-08-25T14:28:25;28.20;99.90
14093;DHT22;7123;49.468;10.992;2022-08-25T14:30:56;28.30;99.90
14093;DHT22;7123;49.468;10.992;2022-08-25T14:33:41;28.30;99.90
14093;DHT22;7123;49.468;10.992;2022-08-25T14:36:08;28.40;99.90
14093;DHT22;7123;49.468;10.992;2022-08-25T14:38:35;28.80;99.90
14093;DHT22;7123;49.468;10.992;2022-08-25T14:41:06;28.90;99.90
14093;DHT22;7123;49.468;10.992;2022-08-25T14:43:38;29.10;99.90
14093;DHT22;7123;49.468;10.992;2022-08-25T14:46:19;29.10;99.90
14093;DHT22;7123;49.468;10.992;2022-08-25T14:48:52;29.20;99.90
14093;DHT22;7123;49.468;10.992;2022-08-25T14:51:22;29.30;99.90
14093;DHT22;7123;49.468;10.992;2022-08-25T14:53:52;29.30;99.90
14093;DHT22;7123;49.468;10.992;2022-08-25T14:56:20;29.40;99.90
14093;DHT22;7123;49.468;10.992;2022-08-25T14:58:47;29.60;99.90
14093;DHT22;7123;49.468;10.992;2022-08-25T15:01:21;29.90;99.90
14093;DHT22;7123;49.468;10.992;2022-08-25T15:04:00;30.30;99.90
14093;DHT22;7123;49.468;10.992;2022-08-25T15:06:28;30.70;99.90
14093;DHT22;7123;49.468;10.992;2022-08-25T15:08:55;30.80;99.90
14093;DHT22;7123;49.468;10.992;2022-08-25T15:11:46;30.80;99.90
14093;DHT22;7123;49.468;10.992;2022-08-25T15:14:17;30.90;99.90
14093;DHT22;7123;49.468;10.992;2022-08-25T15:16:59;31.20;99.90
14093;DHT22;7123;49.468;10.992;2022-08-25T15:19:27;31.50;99.90
14093;DHT22;7123;49.468;10.992;2022-08-25T15:21:54;31.80;99.90
14093;DHT22;7123;49.468;10.992;2022-08-25T15:24:26;32.00;99.90
14093;DHT22;7123;49.468;10.992;2022-08-25T15:26:57;31.80;99.90
14093;DHT22;7123;49.468;10.992;2022-08-25T15:29:26;31.70;99.90
14093;DHT22;7123;49.468;10.992;2022-08-25T15:31:55;31.40;99.90
14093;DHT22;7123;49.468;10.992;2022-08-25T15:34:22;31.30;99.90
14093;DHT22;7123;49.468;10.992;2022-08-25T15:36:49;31.70;99.90
14093;DHT22;7123;49.468;10.992;2022-08-25T15:39:16;31.70;99.90
14093;DHT22;7123;49.468;10.992;2022-08-25T15:41:46;31.70;99.90
14093;DHT22;7123;49.468;10.992;2022-08-25T15:44:18;31.40;99.90
14093;DHT22;7123;49.468;10.992;2022-08-25T15:46:45;31.50;99.90
14093;DHT22;7123;49.468;10.992;2022-08-25T15:49:16;31.60;99.90
14093;DHT22;7123;49.468;10.992;2022-08-25T15:51:52;32.00;99.90
14093;DHT22;7123;49.468;10.992;2022-08-25T15:54:21;32.00;99.90
14093;DHT22;7123;49.468;10.992;2022-08-25T15:56:48;31.70;99.90
14093;DHT22;7123;49.468;10.992;2022-08-25T15:59:17;31.60;99.90
14093;DHT22;7123;49.468;10.992;2022-08-25T16:01:47;31.50;99.90
14093;DHT22;7123;49.468;10.992;2022-08-25T16:04:14;30.90;99.90
14093;DHT22;7123;49.468;10.992;2022-08-25T16:06:43;30.50;99.90
14093;DHT22;7123;49.468;10.992;2022-08-25T16:09:10;30.20;99.90
14093;DHT22;7123;49.468;10.992;2022-08-25T16:11:37;30.00;99.90
14093;DHT22;7123;49.468;10.992;2022-08-25T16:14:04;30.00;99.90
14093;DHT22;7123;49.468;10.992;2022-08-25T16:16:32;30.00;99.90
14093;DHT22;7123;49.468;10.992;2022-08-25T16:18:59;30.00;99.90
14093;DHT22;7123;49.468;10.992;2022-08-25T16:21:29;29.90;99.90
14093;DHT22;7123;49.468;10.992;2022-08-25T16:24:00;29.70;99.90
14093;DHT22;7123;49.468;10.992;2022-08-25T16:26:34;29.60;99.90
14093;DHT22;7123;49.468;10.992;2022-08-25T16:29:03;29.50;99.90
14093;DHT22;7123;49.468;10.992;2022-08-25T16:31:32;29.40;99.90
14093;DHT22;7123;49.468;10.992;2022-08-25T16:33:59;29.30;99.90
14093;DHT22;7123;49.468;10.992;2022-08-25T16:36:28;29.20;99.90
14093;DHT22;7123;49.468;10.992;2022-08-25T16:38:56;29.10;99.90
14093;DHT22;7123;49.468;10.992;2022-08-25T16:41:29;29.20;99.90
14093;DHT22;7123;49.468;10.992;2022-08-25T16:44:03;29.30;99.90
14093;DHT22;7123;49.468;10.992;2022-08-25T16:46:37;29.30;99.90
14093;DHT22;7123;49.468;10.992;2022-08-25T16:49:06;29.20;99.90
14093;DHT22;7123;49.468;10.992;2022-08-25T16:51:35;29.20;99.90
14093;DHT22;7123;49.468;10.992;2022-08-25T16:54:04;29.30;99.90
14093;DHT22;7123;49.468;10.992;2022-08-25T16:56:50;29.20;99.90
14093;DHT22;7123;49.468;10.992;2022-08-25T16:59:21;29.20;99.90
14093;DHT22;7123;49.468;10.992;2022-08-25T17:01:50;29.20;99.90
14093;DHT22;7123;49.468;10.992;2022-08-25T17:04:17;29.30;99.90
14093;DHT22;7123;49.468;10.992;2022-08-25T17:06:44;29.30;99.90
14093;DHT22;7123;49.468;10.992;2022-08-25T17:09:18;29.30;99.90
14093;DHT22;7123;49.468;10.992;2022-08-25T17:11:50;29.60;99.90
14093;DHT22;7123;49.468;10.992;2022-08-25T17:14:20;30.00;99.90
14093;DHT22;7123;49.468;10.992;2022-08-25T17:16:47;30.40;99.90
14093;DHT22;7123;49.468;10.992;2022-08-25T17:19:17;30.80;99.90
14093;DHT22;7123;49.468;10.992;2022-08-25T17:21:44;31.10;99.90
14093;DHT22;7123;49.468;10.992;2022-08-25T17:24:15;31.30;99.90
14093;DHT22;7123;49.468;10.992;2022-08-25T17:26:43;31.40;99.90
14093;DHT22;7123;49.468;10.992;2022-08-25T17:29:11;31.40;99.90
14093;DHT22;7123;49.468;10.992;2022-08-25T17:31:39;31.30;99.90
14093;DHT22;7123;49.468;10.992;2022-08-25T17:34:11;31.30;99.90
14093;DHT22;7123;49.468;10.992;2022-08-25T17:36:42;31.40;99.90
14093;DHT22;7123;49.468;10.992;2022-08-25T17:39:11;31.30;99.90
14093;DHT22;7123;49.468;10.992;2022-08-25T17:41:40;31.30;99.90
14093;DHT22;7123;49.468;10.992;2022-08-25T17:44:07;31.30;99.90
14093;DHT22;7123;49.468;10.992;2022-08-25T17:46:35;31.30;99.90
14093;DHT22;7123;49.468;10.992;2022-08-25T17:49:03;31.20;99.90
14093;DHT22;7123;49.468;10.992;2022-08-25T17:51:30;31.00;99.90
14093;DHT22;7123;49.468;10.992;2022-08-25T17:53:57;30.80;99.90
14093;DHT22;7123;49.468;10.992;2022-08-25T17:56:25;30.60;99.90
14093;DHT22;7123;49.468;10.992;2022-08-25T17:58:53;30.50;99.90
14093;DHT22;7123;49.468;10.992;2022-08-25T18:01:26;30.40;99.90
14093;DHT22;7123;49.468;10.992;2022-08-25T18:03:53;30.30;99.90
14093;DHT22;7123;49.468;10.992;2022-08-25T18:06:22;30.20;99.90
14093;DHT22;7123;49.468;10.992;2022-08-25T18:08:49;30.00;99.90
14093;DHT22;7123;49.468;10.992;2022-08-25T18:11:20;29.80;99.90